FIMPFIMR

Guest
Details From FIMP - SIR SEEWOOSAGUR RAMGOOLAM INTL
To FIMR - PLAINE CORAIL
Flight Number -
Tags generated
Created
Modified
Stats Distance 325 nm / 602 km
Max Altitude 35,000 ft / 10,668 m
Waypoints 4
Social Downloads 9
Likes 0
Share VATSIM

Download

Looking for another format? Having issues loading an existing format? Contact us
Advertisement - Login to hide

Notes

Basic altitude profile: - Ascent Rate: 2500ft/min - Ascent Speed: 250kts - Cruise Altitude: 35000ft - Cruise Speed: 420kts - Descent Rate: 1500ft/min - Descent Speed: 250kts Options: - Use NATs: yes - Use PACOTS: yes - Use low airways: yes - Use high airways: yes

Route

FIMP PLS G200 IXABI FIMR

ID Type Via Altitude Latitude Longitude Leg Dist Tot Dist Heading (true) Name
O FIMP APT - 0 ft / 0 m -20.43023˚ 57.68360˚ - 0 nm - SIR SEEWOOSAGUR RAMGOOLAM INTL
PLS VOR - 400 ft / 122 m -20.42003˚ 57.66233˚ 1 nm 1 nm 297° / 297° PLAISANCE VOR-DME
IXABI FIX G200 (AWY-LO) 35,000 ft / 10,668 m -20.13417˚ 60.31028˚ 150 nm 151 nm 84° / 83° -
O FIMR APT - 0 ft / 0 m -19.75766˚ 63.36098˚ 173 nm 325 nm 83° / 82° PLAINE CORAIL

Altitude Profile

Advertisement - Login to hide

Weather


0- 5 10 15 20 25 30 35+ Temperature / ° C

Clouds and Precipitation
Forecast for 2017-12-18 06:00 UTC. Updated 29 minutes ago

Ground ~20,000 ft ~40,000 ft Winds

FIMP

Details ICAO FIMP (MRU)
Name SIR SEEWOOSAGUR RAMGOOLAM INTL
Region Mauritius
Timezone Indian/Mauritius (UTC+4.0)
Stats Elevation 186 ft / 57 m (AMSL)
Location -20.430235° 57.683602°
Runways 1
Magnetic Variation 18.412° W

METAR

FIMP 180300Z 09011KT 9999 SCT016 OVC250 27/21 Q1017

Decode

TAF

TAF FIMP 172340Z 1800/1906 09008KT 9999 SCT018 BECMG 1804/1806 09012KT

Decode

Departure Runways

ID Width Length Bearing (true) Bearing (mag) Surface Threshold Offset Overrun Length
14 148 ft / 45 m 11,037 ft / 3,364 m 117.22° 135.63° Asphalt 1,082 ft / 330 m 200 ft / 61 m
32 148 ft / 45 m 11,037 ft / 3,364 m 297.21° 315.62° Asphalt 0 ft / 0 m 0 ft / 0 m

FIMR

Details ICAO FIMR (RRG)
Name PLAINE CORAIL
Region Mauritius
Timezone Indian/Mauritius (UTC+4.0)
Stats Elevation 95 ft / 29 m (AMSL)
Location -19.757658° 63.360982°
Runways 1
Magnetic Variation 17.140° W

METAR

FIMR 180300Z 10013KT 9999 FEW020 27/22 Q1017

Decode

TAF

TAF FIMR 172345Z 1800/1818 10015G25KT 9999 SCT018

Decode

Destination Runways

ID Width Length Bearing (true) Bearing (mag) Surface Threshold Offset Overrun Length
12 98 ft / 30 m 4,222 ft / 1,287 m 105.95° 123.09° Asphalt 440 ft / 134 m 98 ft / 30 m
30 98 ft / 30 m 4,222 ft / 1,287 m 285.94° 303.08° Asphalt 240 ft / 73 m 98 ft / 30 m

Popular Alternatives